Strafford, New Hampshire
Current Conditions -  °F | °C
As of 10:12 AM on Sunday 21 Dec 2014 (Local Time) from KDAW Reporting Station
Light Snow Light Snow  
Wind Chill: 20°   Ceiling: 2800
Heat Index: 27°   Visibility: 2mi
Dew Point: 19°   Wind: 6mph
Humidity: 72%   Direction: 10°N
Pressure: 30.34"   Gusts: NA
Location:  43.33°N, 71.18°W
Report Text: KDAW 211512Z AUTO 01005KT 2SM -SN BKN028 OVC043 M03/M07 A3034 RMK AO2 SNB08 P0000 T10281072
Loading
Personal Weather Stations






























Interactive Weather Map New forecast layout! Learn more

10-Day Weather Forecast

Advertisements
Track Severe Weather on mobile